Flight Track Log - Related Links

Times and Time Zones

All times are in EST time to prevent confusion due to time zone crossing. See the SWA118 flight status page for this flight to view local times or setup timezone preferences in your user account.

Time Position Orientation Groundspeed Altitude Reporting Facility
EST Latitude Longitude Course Direction KTS MPH feet Rate Location/Type
Fri 04:26:47 PM 36.0767 -115.1706 270° West 158 182 3,100  Level Los Angeles Center
Fri 04:28:06 PM 36.0581 -115.2644 256° West 236 272 5,000 1,929 Climbing Los Angeles Center
Fri 04:29:07 PM 35.9953 -115.2931 200° South 242 278 7,600 2,516 Climbing Los Angeles Center
Fri 04:29:08 PM 35.9953 -115.2914 90° East 245 282 7,600 3,148 Level Los Angeles Center
Fri 04:30:08 PM 35.9406 -115.3403 216° Southwest 243 280 10,800 3,097 Climbing Los Angeles Center
Fri 04:30:10 PM 35.9419 -115.3386 44° Northeast 242 278 10,800 3,000 Level Los Angeles Center
Fri 04:31:12 PM 35.8883 -115.4158 229° Southwest 281 323 14,000 3,048 Climbing Los Angeles Center
Fri 04:32:00 PM 35.8834 -115.8342 270° West  Level FlightAware Approximate
Fri 04:32:14 PM 35.8883 -115.5183 270° West 299 344 17,100  Level Los Angeles Center
Fri 04:33:16 PM 35.8900 -115.6311 271° West 306 352 20,600 2,855 Climbing Los Angeles Center
Fri 04:34:18 PM 35.8919 -115.7367 271° West 309 356 23,000 2,160 Climbing Los Angeles Center
Fri 04:35:21 PM 35.8939 -115.8436 271° West 329 379 25,100 2,112 Climbing Los Angeles Center
Fri 04:36:23 PM 35.9044 -115.9708 276° West 349 402 27,400 1,984 Climbing Los Angeles Center
Fri 04:37:25 PM 35.9839 -116.0714 314° West 413 475 29,200 1,306 Climbing Los Angeles Center
Fri 04:38:27 PM 36.0833 -116.1867 317° Northwest 440 506 30,100 1,452 Climbing Los Angeles Center
Fri 04:39:29 PM 36.1669 -116.2833 317° Northwest 458 527 32,200 2,081 Climbing Los Angeles Center
Fri 04:40:31 PM 36.2761 -116.4089 317° Northwest 450 518 34,400 1,742 Climbing Los Angeles Center
Fri 04:41:33 PM 36.3653 -116.5125 317° Northwest 443 510 35,800 774 Climbing Los Angeles Center
Fri 04:42:35 PM 36.4583 -116.6114 319° Northwest 451 519 36,000 97 Climbing Los Angeles Center
Fri 04:43:37 PM 36.5739 -116.7142 324° Northwest 454 522 36,000  Level Los Angeles Center
Fri 04:44:39 PM 36.6747 -116.8067 324° Northwest 455 524 36,000  Level Los Angeles Center
Fri 04:45:41 PM 36.7608 -116.8817 325° Northwest 449 517 36,000  Level Los Angeles Center
Fri 04:46:43 PM 36.8767 -116.9894 323° Northwest 452 520 36,000  Level Los Angeles Center
Fri 04:47:45 PM 36.9797 -117.0825 324° Northwest 457 526 36,000  Level Los Angeles Center
Fri 04:48:47 PM 37.0833 -117.1767 324° Northwest 462 532 36,000  Level Los Angeles Center
Fri 04:49:49 PM 37.1869 -117.2703 324° Northwest 460 529 36,000  Level Los Angeles Center
Fri 04:50:50 PM 37.3119 -117.3833 324° Northwest 460 529 36,000  Level Los Angeles Center
Fri 04:52:01 PM 37.4144 -117.4764 324° Northwest 451 519 36,000  Level Oakland Center
Fri 04:53:02 PM 37.5192 -117.5756 323° Northwest 464 534 36,000  Level Oakland Center
Fri 04:54:03 PM 37.6253 -117.6714 324° Northwest 465 535 36,000  Level Oakland Center
Fri 04:55:04 PM 37.7300 -117.7694 323° Northwest 465 535 36,000  Level Oakland Center
Fri 04:56:05 PM 37.8558 -117.8869 324° Northwest 465 535 36,000  Level Oakland Center
Fri 04:57:06 PM 37.9608 -117.9847 324° Northwest 465 535 36,000  Level Oakland Center
Fri 04:58:08 PM 38.0667 -118.0844 323° Northwest 469 540 36,000  Level Oakland Center
Fri 04:59:09 PM 38.1744 -118.1878 323° Northwest 475 547 36,000  Level Oakland Center
Fri 05:00:10 PM 38.2817 -118.2894 323° Northwest 480 552 36,000  Level Oakland Center
Fri 05:01:11 PM 38.3883 -118.3903 323° Northwest 479 551 36,000  Level Oakland Center
Fri 05:02:12 PM 38.4944 -118.4914 323° Northwest 476 548 36,000  Level Oakland Center
Fri 05:03:13 PM 38.6017 -118.5956 323° Northwest 479 551 36,000  Level Oakland Center
Fri 05:04:14 PM 38.7078 -118.6969 323° Northwest 477 549 36,000  Level Oakland Center
Fri 05:05:15 PM 38.8111 -118.7986 323° Northwest 471 542 36,000  Level Oakland Center
Fri 05:06:16 PM 38.9144 -118.8983 323° Northwest 464 534 36,000  Level Oakland Center
Fri 05:07:18 PM 39.0231 -118.9914 326° Northwest 465 535 36,000  Level Oakland Center
Fri 05:08:19 PM 39.1408 -119.0683 333° Northwest 469 540 36,000  Level Oakland Center
Fri 05:09:20 PM 39.2572 -119.1483 332° Northwest 467 537 36,000  Level Oakland Center
Fri 05:10:21 PM 39.3739 -119.2269 332° Northwest 468 539 36,000  Level Oakland Center
Fri 05:11:22 PM 39.4894 -119.3067 332° Northwest 466 536 36,000  Level Oakland Center
Fri 05:12:23 PM 39.6050 -119.3853 332° Northwest 466 536 36,000  Level Oakland Center
Fri 05:13:24 PM 39.7194 -119.4656 332° Northwest 466 536 36,000  Level Oakland Center
Fri 05:14:25 PM 39.8583 -119.5606 332° Northwest 468 539 36,000  Level Oakland Center
Fri 05:15:26 PM 39.9742 -119.6389 333° Northwest 468 539 36,000  Level Oakland Center
Fri 05:16:27 PM 40.0883 -119.7192 332° Northwest 465 535 36,000  Level Oakland Center
Fri 05:17:29 PM 40.2047 -119.8000 332° Northwest 471 542 36,000  Level Oakland Center
Fri 05:18:30 PM 40.3228 -119.8825 332° Northwest 480 552 36,000  Level Oakland Center
Fri 05:19:31 PM 40.4417 -119.9622 333° Northwest 481 554 36,000  Level Oakland Center
Fri 05:20:32 PM 40.5550 -120.0444 331° Northwest 469 540 36,000  Level Oakland Center
Fri 05:21:33 PM 40.6561 -120.1219 330° Northwest 465 535 36,000  Level Oakland Center
Fri 05:22:34 PM 40.7922 -120.2175 332° Northwest 463 533 36,000  Level Oakland Center
Fri 05:23:35 PM 40.9089 -120.2964 333° Northwest 471 542 36,000  Level Oakland Center
Fri 05:24:36 PM 41.0217 -120.3783 331° Northwest 466 536 36,000  Level Oakland Center
Fri 05:25:37 PM 41.1358 -120.4603 332° Northwest 466 536 36,000  Level Oakland Center
Fri 05:26:38 PM 41.2517 -120.5428 332° Northwest 473 544 36,000  Level Oakland Center
Fri 05:27:39 PM 41.3642 -120.6253 331° Northwest 466 536 36,000  Level Oakland Center
Fri 05:28:40 PM 41.4767 -120.7081 331° Northwest 464 534 36,000  Level Oakland Center
Fri 05:29:41 PM 41.5889 -120.7903 331° Northwest 463 533 36,000  Level Oakland Center
Fri 05:30:42 PM 41.7017 -120.8733 331° Northwest 467 537 36,000  Level Oakland Center
Fri 05:31:43 PM 41.8133 -120.9558 331° Northwest 461 531 36,000  Level Oakland Center
Fri 05:32:44 PM 41.9244 -121.0383 331° Northwest 460 529 36,000  Level Oakland Center
Fri 05:33:46 PM 42.0583 -121.1375 331° Northwest 460 529 36,000  Level Oakland Center
Fri 05:35:08 PM 42.2144 -121.2536 331° Northwest 464 534 36,000  Level Seattle Center
Fri 05:36:09 PM 42.3261 -121.3358 331° Northwest 459 528 36,000  Level Seattle Center
Fri 05:37:10 PM 42.4364 -121.4194 331° Northwest 459 528 36,000  Level Seattle Center
Fri 05:38:11 PM 42.5444 -121.5025 330° Northwest 450 518 36,000  Level Seattle Center
Fri 05:39:12 PM 42.6333 -121.6200 316° Northwest 449 517 36,000  Level Seattle Center
Fri 05:40:13 PM 42.7211 -121.7458 314° West 454 522 36,000  Level Seattle Center
Fri 05:41:13 PM 42.8069 -121.8656 314° West 449 517 36,000  Level Seattle Center
Fri 05:42:14 PM 42.8964 -121.9911 314° West 459 528 36,000  Level Seattle Center
Fri 05:43:15 PM 42.9869 -122.1117 316° Northwest 456 525 36,000  Level Seattle Center
Fri 05:44:16 PM 43.0858 -122.2422 316° Northwest 450 518 36,000  Level Seattle Center
Fri 05:45:17 PM 43.1692 -122.3781 310° West 462 532 36,000  Level Seattle Center
Fri 05:46:18 PM 43.2506 -122.5097 310° West 454 522 36,000  Level Seattle Center
Fri 05:47:19 PM 43.3411 -122.6247 317° Northwest 453 521 36,000  Level Seattle Center
Fri 05:48:20 PM 43.4636 -122.6453 353° North 441 507 36,000  Level Seattle Center
Fri 05:49:21 PM 43.5847 -122.6647 353° North 444 511 36,000  Level Seattle Center
Fri 05:50:22 PM 43.7056 -122.6842 353° North 438 504 36,000 -689 Level Seattle Center
Fri 05:51:23 PM 43.8256 -122.7019 354° North 435 501 34,600 -2,262 Descending Seattle Center
Fri 05:52:24 PM 43.9664 -122.7222 354° North 427 491 31,400 -2,607 Descending Seattle Center
Fri 05:53:25 PM 44.0811 -122.7411 353° North 419 482 29,300 -2,016 Descending Seattle Center
Fri 05:54:26 PM 44.1919 -122.7506 357° North 404 465 27,300 -2,016 Descending Seattle Center
Fri 05:55:27 PM 44.3006 -122.7375 North 394 453 25,200 -2,016 Descending Seattle Center
Fri 05:56:28 PM 44.4022 -122.7275 North 390 449 23,200 -1,967 Descending Seattle Center
Fri 05:57:29 PM 44.5075 -122.7175 North 383 441 21,200 -1,918 Descending Seattle Center
Fri 05:58:30 PM 44.6097 -122.7072 North 374 430 19,300 -2,414 Descending Seattle Center
Fri 05:58:56 PM 44.6664 -122.7039 North 369 425 17,700 -2,737 Descending Seattle Center
Fri 05:59:27 PM 44.7214 -122.6969 North 362 417 16,700 -1,588 Descending Seattle Center
Fri 05:59:30 PM 44.7106 -122.6983 185° South 368 423 16,800 -1,900 Climbing Seattle Center
Fri 06:00:27 PM 44.8172 -122.6889 North 350 403 14,800 -2,262 Descending Seattle Center
Fri 06:00:31 PM 44.8267 -122.6864 11° North 357 411 14,500 -1,574 Descending Seattle Center
Fri 06:01:28 PM 44.9131 -122.6808 North 339 390 13,200 -1,574 Descending Seattle Center
Fri 06:01:32 PM 44.9203 -122.6786 12° North 346 398 12,900 -1,385 Descending Seattle Center
Fri 06:02:33 PM 45.0103 -122.6992 351° North 334 384 11,700 -1,282 Descending Seattle Center
Fri 06:03:29 PM 45.0889 -122.7139 352° North 304 350 10,400 -1,475 Descending Seattle Center
Fri 06:03:34 PM 45.0944 -122.7156 348° North 317 365 10,200 -1,455 Descending Seattle Center
Fri 06:04:35 PM 45.1844 -122.7339 352° North 301 346 8,800 -1,324 Descending Seattle Center
Fri 06:04:42 PM 45.1911 -122.7369 342° North 300 345 8,700 -1,279 Descending Seattle Center
Fri 06:05:36 PM 45.2639 -122.7489 353° North 289 333 7,500 -1,279 Descending Seattle Center
Fri 06:05:43 PM 45.2697 -122.7511 345° North 287 330 7,400 -492 Descending Seattle Center
Fri 06:06:37 PM 45.3414 -122.7647 352° North 282 325 7,000 -300 Descending Seattle Center
Fri 06:06:43 PM 45.3469 -122.7692 331° Northwest 280 322 7,100 -885 Climbing Seattle Center
Fri 06:07:38 PM 45.4153 -122.7969 344° North 278 320 6,100 -1,190 Descending Seattle Center
Fri 06:08:39 PM 45.4856 -122.8411 336° Northwest 277 319 4,800 -1,367 Descending Seattle Center
Fri 06:08:57 PM 45.5069 -122.8553 335° Northwest 273 314 4,300 -1,300 Descending Seattle Center
Fri 06:09:39 PM 45.5553 -122.8481 North 263 303 3,500 -1,227 Descending Seattle Center
Fri 06:09:41 PM 45.5614 -122.8439 26° Northeast 265 305 3,400 -295 Descending Seattle Center
Fri 06:10:40 PM 45.6161 -122.8050 26° Northeast 223 257 3,200 -300 Descending Seattle Center
Fri 06:10:41 PM 45.6211 -122.8033 13° North 232 267 3,100 -1,258 Descending Seattle Center
Fri 06:11:42 PM 45.6467 -122.7558 52° Northeast 155 178 1,900 -1,091 Descending Seattle Center
Fri 06:11:47 PM 45.6447 -122.7531 135° Southeast 141 162 1,900 -500 Level Seattle Center
Fri 06:12:42 PM 45.6258 -122.7022 118° Southeast 151 174 1,400 -536 Descending Seattle Center
Fri 06:12:43 PM 45.6258 -122.7022 118° Southeast 156 180 1,400 -774 Level Seattle Center
Fri 06:13:44 PM 45.6081 -122.6561 119° Southeast 136 157 600 -738 Descending Seattle Center
Fri 06:13:48 PM 45.6075 -122.6542 112° Southeast 129 148 600  Level Seattle Center
Fri 06:16:00 PM 45.5887 -122.5969 60° Northeast  Level Estimated
Fri 06:23:00 PM 45.5887 -122.5969 60° Northeast  Level Estimated
Fri 06:24:00 PM 45.5887 -122.5969 60° Northeast  Level Estimated

Login

Don't have an account? Register now (free) for customized features, flight alerts, and more!